createdAt,value
2022-08-23T00:01:25.032Z,13.39
2022-08-23T00:03:55.044Z,13.38
2022-08-23T00:06:23.458Z,13.08
2022-08-23T00:08:52.477Z,13.40
2022-08-23T00:11:25.080Z,13.38
2022-08-23T00:13:51.858Z,13.21
2022-08-23T00:16:18.593Z,13.31
2022-08-23T00:18:49.281Z,13.22
2022-08-23T00:21:16.813Z,13.23
2022-08-23T00:23:44.055Z,13.41
2022-08-23T00:26:11.013Z,13.57
2022-08-23T00:28:38.144Z,13.75
2022-08-23T00:31:05.148Z,13.73
2022-08-23T00:33:31.782Z,13.29
2022-08-23T00:35:58.489Z,13.10
2022-08-23T00:38:33.606Z,12.92
2022-08-23T00:41:02.669Z,13.21
2022-08-23T00:43:56.129Z,13.27
2022-08-23T00:47:08.284Z,13.41
2022-08-23T00:49:37.320Z,13.39
2022-08-23T00:52:23.068Z,13.36
2022-08-23T00:54:52.934Z,13.46
2022-08-23T00:57:21.135Z,13.21
2022-08-23T00:59:47.890Z,13.28
2022-08-23T01:02:14.968Z,13.47
2022-08-23T01:04:48.507Z,13.15
2022-08-23T01:07:46.856Z,13.47
2022-08-23T01:10:24.911Z,13.04
2022-08-23T01:13:01.057Z,13.18
2022-08-23T01:15:40.420Z,13.11
2022-08-23T01:18:09.411Z,12.95
2022-08-23T01:20:50.120Z,13.07
2022-08-23T01:23:26.218Z,13.10
2022-08-23T01:25:54.732Z,12.94
2022-08-23T01:28:21.500Z,12.92
2022-08-23T01:30:48.848Z,12.97
2022-08-23T01:33:16.418Z,13.24
2022-08-23T01:35:47.935Z,13.40
2022-08-23T01:38:14.712Z,12.92
2022-08-23T01:40:42.205Z,12.72
2022-08-23T01:43:09.597Z,12.46
2022-08-23T01:45:37.397Z,12.58
2022-08-23T01:48:06.768Z,12.60
2022-08-23T01:50:33.570Z,12.64
2022-08-23T01:53:00.913Z,12.76
2022-08-23T01:55:28.213Z,12.77
2022-08-23T01:57:58.183Z,13.14
2022-08-23T02:00:30.433Z,12.85
2022-08-23T02:02:58.367Z,12.65
2022-08-23T02:05:26.161Z,12.94
2022-08-23T02:07:53.015Z,12.56
2022-08-23T02:10:20.472Z,12.21
2022-08-23T02:12:47.114Z,12.26
2022-08-23T02:15:15.305Z,12.18
2022-08-23T02:17:42.232Z,12.32
2022-08-23T02:20:09.340Z,12.47
2022-08-23T02:22:38.876Z,12.83
2022-08-23T02:25:07.036Z,12.52
2022-08-23T02:27:33.672Z,12.58
2022-08-23T02:30:00.424Z,12.70
2022-08-23T02:32:28.777Z,12.68
2022-08-23T02:35:04.580Z,12.65
2022-08-23T02:37:33.038Z,12.54
2022-08-23T02:39:59.950Z,12.42
2022-08-23T02:42:26.785Z,12.63
2022-08-23T02:44:53.424Z,12.51
2022-08-23T02:47:20.263Z,12.33
2022-08-23T02:49:47.021Z,12.46
2022-08-23T02:52:14.260Z,12.49
2022-08-23T02:54:40.959Z,12.50
2022-08-23T02:57:07.580Z,12.43
2022-08-23T02:59:35.259Z,12.58
2022-08-23T03:02:01.947Z,12.65
2022-08-23T03:04:29.040Z,12.57
2022-08-23T03:06:55.891Z,12.28
2022-08-23T03:09:22.562Z,12.37
2022-08-23T03:11:49.971Z,12.42
2022-08-23T03:14:16.943Z,12.45
2022-08-23T03:16:44.579Z,12.56
2022-08-23T03:19:11.495Z,12.64
2022-08-23T03:21:38.613Z,12.47
2022-08-23T03:24:10.208Z,12.33
2022-08-23T03:26:37.944Z,12.33
2022-08-23T03:29:04.743Z,12.28
2022-08-23T03:31:31.406Z,12.21
2022-08-23T03:33:58.611Z,12.22
2022-08-23T03:36:28.257Z,12.25
2022-08-23T03:38:55.772Z,12.09
2022-08-23T03:41:22.744Z,12.26
2022-08-23T03:43:49.571Z,12.11
2022-08-23T03:46:25.408Z,12.33
2022-08-23T03:48:55.281Z,12.49
2022-08-23T03:51:23.745Z,12.52
2022-08-23T03:53:50.749Z,12.34
2022-08-23T03:56:28.636Z,12.30
2022-08-23T03:58:57.512Z,12.33
2022-08-23T04:01:28.352Z,12.36
2022-08-23T04:03:55.568Z,12.24
2022-08-23T04:06:22.177Z,12.15
2022-08-23T04:08:48.837Z,12.03
2022-08-23T04:11:15.585Z,12.22
2022-08-23T04:13:42.937Z,12.22
2022-08-23T04:16:09.677Z,12.04
2022-08-23T04:18:36.552Z,12.10
2022-08-23T04:21:10.020Z,12.19
2022-08-23T04:23:39.449Z,12.01
2022-08-23T04:26:06.793Z,12.09
2022-08-23T04:28:37.186Z,11.96
2022-08-23T04:31:05.119Z,12.09
2022-08-23T04:33:32.975Z,12.05
2022-08-23T04:36:01.864Z,12.05
2022-08-23T04:38:29.026Z,12.16
2022-08-23T04:41:15.196Z,12.16
2022-08-23T04:43:44.006Z,12.38
2022-08-23T04:46:13.419Z,12.56
2022-08-23T04:48:40.339Z,12.19
2022-08-23T04:51:07.067Z,12.56
2022-08-23T04:53:35.343Z,12.49
2022-08-23T04:56:04.093Z,12.27
2022-08-23T04:58:32.744Z,12.58
2022-08-23T05:01:01.688Z,12.49
2022-08-23T05:03:29.735Z,12.64
2022-08-23T05:05:58.044Z,12.32
2022-08-23T05:08:25.875Z,12.58
2022-08-23T05:10:52.786Z,12.56
2022-08-23T05:13:19.868Z,12.62
2022-08-23T05:15:46.851Z,12.58
2022-08-23T05:18:13.469Z,12.75
2022-08-23T05:20:40.181Z,12.81
2022-08-23T05:23:06.844Z,12.43
2022-08-23T05:25:53.318Z,12.47
2022-08-23T05:28:23.508Z,12.82
2022-08-23T05:31:18.187Z,12.84
2022-08-23T05:33:45.457Z,12.94
2022-08-23T05:36:16.269Z,13.06
2022-08-23T05:38:44.060Z,13.02
2022-08-23T05:41:11.433Z,13.21
2022-08-23T05:43:38.112Z,12.90
2022-08-23T05:46:12.766Z,12.97
2022-08-23T05:48:42.720Z,13.01
2022-08-23T05:51:12.421Z,13.21
2022-08-23T05:53:40.208Z,13.46
2022-08-23T05:56:17.165Z,13.49
2022-08-23T05:58:44.977Z,13.40
2022-08-23T06:01:14.066Z,13.72
2022-08-23T06:03:41.750Z,13.95
2022-08-23T06:06:09.278Z,14.01
2022-08-23T06:08:38.421Z,13.89
2022-08-23T06:11:10.111Z,13.88
2022-08-23T06:13:44.039Z,13.98
2022-08-23T06:16:14.412Z,13.92
2022-08-23T06:18:42.347Z,14.20
2022-08-23T06:21:11.301Z,14.41
2022-08-23T06:23:38.433Z,14.50
2022-08-23T06:26:20.297Z,14.65
2022-08-23T06:28:51.527Z,14.81
2022-08-23T06:31:38.359Z,14.96
2022-08-23T06:34:05.104Z,15.16
2022-08-23T06:36:32.061Z,15.24
2022-08-23T06:38:58.996Z,15.38
2022-08-23T06:41:25.827Z,15.46
2022-08-23T06:43:52.581Z,15.77
2022-08-23T06:46:23.487Z,15.94
2022-08-23T06:48:51.674Z,15.98
2022-08-23T06:51:24.799Z,16.13
2022-08-23T06:53:55.150Z,16.01
2022-08-23T06:56:24.276Z,16.15
2022-08-23T06:58:52.386Z,16.10
2022-08-23T07:01:44.143Z,16.26
2022-08-23T07:04:07.945Z,16.30
2022-08-23T07:06:34.861Z,16.39
2022-08-23T07:09:02.133Z,16.65
2022-08-23T07:11:32.844Z,16.70
2022-08-23T07:14:01.776Z,17.03
2022-08-23T07:16:48.280Z,16.81
2022-08-23T07:19:16.028Z,17.10
2022-08-23T07:21:43.911Z,17.11
2022-08-23T07:24:13.623Z,17.39
2022-08-23T07:26:42.319Z,17.32
2022-08-23T07:29:11.261Z,17.47
2022-08-23T07:31:44.342Z,17.77
2022-08-23T07:34:11.815Z,17.85
2022-08-23T07:36:41.717Z,17.76
2022-08-23T07:39:09.521Z,18.04
2022-08-23T07:41:37.984Z,17.97
2022-08-23T07:44:08.646Z,18.00
2022-08-23T07:46:36.400Z,18.16
2022-08-23T07:49:04.508Z,18.21
2022-08-23T07:51:32.805Z,18.55
2022-08-23T07:54:02.532Z,18.61
2022-08-23T07:56:29.425Z,18.81
2022-08-23T07:58:56.269Z,18.79
2022-08-23T08:01:26.133Z,18.90
2022-08-23T08:03:55.610Z,19.03
2022-08-23T08:06:26.003Z,19.18
2022-08-23T08:08:53.284Z,19.29
2022-08-23T08:11:24.361Z,19.24
2022-08-23T08:13:51.650Z,19.32
2022-08-23T08:16:28.861Z,19.42
2022-08-23T08:18:58.149Z,19.47
2022-08-23T08:21:26.764Z,19.61
2022-08-23T08:23:54.280Z,19.52
2022-08-23T08:26:22.901Z,19.73
2022-08-23T08:28:49.731Z,19.92
2022-08-23T08:31:16.496Z,20.09
2022-08-23T08:33:43.238Z,20.14
2022-08-23T08:36:29.037Z,20.30
2022-08-23T08:39:00.547Z,20.47
2022-08-23T08:42:05.293Z,20.69
2022-08-23T08:44:41.036Z,20.83
2022-08-23T08:47:19.400Z,20.84
2022-08-23T08:50:09.692Z,20.85
2022-08-23T08:52:41.069Z,20.96
2022-08-23T08:55:14.552Z,21.09
2022-08-23T08:57:44.641Z,21.07
2022-08-23T09:00:15.270Z,21.07
2022-08-23T09:02:42.721Z,21.21
2022-08-23T09:05:29.032Z,21.41
2022-08-23T09:08:20.209Z,21.57
2022-08-23T09:11:06.511Z,21.81
2022-08-23T09:13:55.779Z,21.78
2022-08-23T09:16:41.125Z,21.58
2022-08-23T09:19:07.956Z,21.82
2022-08-23T09:21:46.377Z,22.04
2022-08-23T09:24:14.114Z,22.04
2022-08-23T09:26:43.555Z,22.04
2022-08-23T09:29:30.093Z,21.97
2022-08-23T09:32:02.399Z,22.06
2022-08-23T09:34:35.987Z,22.19
2022-08-23T09:37:11.701Z,22.27
2022-08-23T09:39:42.009Z,22.62
2022-08-23T09:42:25.471Z,22.82
2022-08-23T09:44:52.085Z,22.74
2022-08-23T09:47:19.117Z,22.89
2022-08-23T09:49:48.413Z,23.10
2022-08-23T09:52:22.851Z,23.12
2022-08-23T09:55:07.027Z,23.00
2022-08-23T09:57:34.960Z,23.06
2022-08-23T10:00:22.032Z,23.24
2022-08-23T10:02:48.895Z,23.17
2022-08-23T10:05:15.504Z,23.47
2022-08-23T10:07:53.428Z,23.44
2022-08-23T10:10:38.437Z,23.58
2022-08-23T10:13:06.311Z,23.43
2022-08-23T10:15:41.031Z,23.53
2022-08-23T10:18:27.007Z,23.65
2022-08-23T10:21:07.595Z,23.59
2022-08-23T10:23:42.855Z,23.83
2022-08-23T10:26:29.825Z,24.02
2022-08-23T10:29:30.130Z,23.99
2022-08-23T10:32:21.449Z,23.82
2022-08-23T10:35:22.843Z,23.92
2022-08-23T10:38:19.655Z,24.10
2022-08-23T10:41:11.511Z,24.06
2022-08-23T10:43:44.758Z,24.22
2022-08-23T10:46:11.839Z,24.30
2022-08-23T10:48:52.135Z,24.26
2022-08-23T10:51:31.474Z,24.34
2022-08-23T10:54:09.999Z,24.26
2022-08-23T10:56:42.988Z,24.27
2022-08-23T10:59:20.774Z,24.62
2022-08-23T11:02:15.987Z,24.57
2022-08-23T11:04:57.135Z,24.56
2022-08-23T11:07:30.283Z,24.58
2022-08-23T11:10:10.006Z,24.77
2022-08-23T11:12:54.621Z,24.69
2022-08-23T11:15:55.016Z,24.59
2022-08-23T11:18:33.775Z,24.58
2022-08-23T11:21:02.735Z,24.54
2022-08-23T11:23:35.493Z,24.50
2022-08-23T11:26:07.259Z,24.73
2022-08-23T11:28:46.615Z,24.97
2022-08-23T11:31:50.715Z,24.78
2022-08-23T11:34:23.130Z,24.82
2022-08-23T11:37:22.002Z,25.03
2022-08-23T11:39:58.455Z,25.11
2022-08-23T11:42:37.464Z,24.96
2022-08-23T11:45:23.323Z,25.19
2022-08-23T11:48:08.810Z,25.33
2022-08-23T11:50:57.895Z,25.18
2022-08-23T11:53:42.891Z,24.86
2022-08-23T11:56:31.180Z,25.24
2022-08-23T11:59:12.636Z,25.52
2022-08-23T12:01:41.927Z,25.31
2022-08-23T12:04:29.448Z,25.09
2022-08-23T12:07:01.908Z,25.13
2022-08-23T12:09:28.656Z,25.29
2022-08-23T12:11:55.311Z,25.16
2022-08-23T12:14:30.821Z,24.93
2022-08-23T12:17:04.398Z,25.23
2022-08-23T12:19:46.560Z,25.08
2022-08-23T12:22:19.843Z,25.33
2022-08-23T12:24:52.686Z,25.10
2022-08-23T12:27:32.463Z,25.25
2022-08-23T12:30:07.989Z,25.23
2022-08-23T12:32:49.564Z,25.29
2022-08-23T12:35:39.415Z,25.32
2022-08-23T12:38:12.069Z,25.31
2022-08-23T12:40:46.832Z,25.34
2022-08-23T12:43:16.770Z,25.73
2022-08-23T12:45:59.088Z,25.87
2022-08-23T12:48:30.184Z,25.61
2022-08-23T12:51:07.788Z,25.87
2022-08-23T12:53:45.135Z,25.82
2022-08-23T12:56:32.049Z,25.90
2022-08-23T12:59:04.925Z,29.60
2022-08-23T13:01:36.529Z,31.82
2022-08-23T13:04:09.220Z,31.68
2022-08-23T13:06:44.033Z,29.20
2022-08-23T13:09:33.962Z,27.92
2022-08-23T13:12:01.155Z,27.10
2022-08-23T13:14:42.501Z,27.27
2022-08-23T13:17:15.326Z,26.15
2022-08-23T13:19:42.104Z,25.95
2022-08-23T13:22:14.416Z,25.97
2022-08-23T13:24:44.129Z,25.48
2022-08-23T13:27:23.649Z,25.90
2022-08-23T13:30:09.997Z,25.68
2022-08-23T13:32:41.762Z,25.53
2022-08-23T13:35:34.090Z,25.56
2022-08-23T13:38:08.464Z,25.82
2022-08-23T13:40:54.030Z,25.80
2022-08-23T13:43:42.029Z,25.88
2022-08-23T13:46:14.692Z,25.80
2022-08-23T13:49:02.275Z,25.81
2022-08-23T13:51:39.047Z,25.71
2022-08-23T13:54:12.180Z,25.85
2022-08-23T13:56:50.417Z,26.01
2022-08-23T13:59:26.984Z,26.10
2022-08-23T14:02:04.557Z,26.14
2022-08-23T14:04:31.528Z,26.27
2022-08-23T14:06:58.189Z,26.08
2022-08-23T14:09:24.825Z,26.95
2022-08-23T14:11:55.600Z,30.18
2022-08-23T14:14:22.183Z,30.65
2022-08-23T14:16:49.193Z,30.64
2022-08-23T14:19:16.853Z,30.46
2022-08-23T14:22:02.630Z,31.20
2022-08-23T14:24:29.412Z,30.52
2022-08-23T14:26:57.276Z,30.40
2022-08-23T14:29:25.308Z,30.74
2022-08-23T14:31:52.291Z,30.80
2022-08-23T14:34:20.564Z,30.35
2022-08-23T14:39:35.061Z,30.64
2022-08-23T14:42:03.244Z,30.80
2022-08-23T14:44:35.686Z,29.62
2022-08-23T14:47:04.804Z,30.34
2022-08-23T14:49:31.601Z,31.66
2022-08-23T14:51:58.405Z,31.76
2022-08-23T14:54:26.175Z,30.32
2022-08-23T14:56:53.554Z,30.25
2022-08-23T14:59:20.671Z,30.74
2022-08-23T15:01:49.788Z,31.67
2022-08-23T15:04:19.539Z,30.89
2022-08-23T15:07:13.868Z,30.44
2022-08-23T15:09:34.211Z,32.69
2022-08-23T15:14:47.619Z,30.62
2022-08-23T15:17:14.272Z,33.10
2022-08-23T15:19:41.047Z,30.98
2022-08-23T15:22:21.632Z,30.82
2022-08-23T15:24:49.382Z,31.06
2022-08-23T15:27:17.737Z,30.58
2022-08-23T15:29:44.394Z,30.49
2022-08-23T15:32:12.658Z,31.10
2022-08-23T15:34:40.173Z,29.85
2022-08-23T15:37:13.065Z,29.84
2022-08-23T15:39:40.452Z,30.21
2022-08-23T15:42:07.156Z,31.30
2022-08-23T15:44:34.032Z,30.47
2022-08-23T15:47:18.291Z,30.11
2022-08-23T15:49:44.985Z,30.32
2022-08-23T15:52:11.667Z,30.82
2022-08-23T15:54:38.592Z,30.14
2022-08-23T15:57:05.376Z,30.26
2022-08-23T15:59:35.906Z,30.06
2022-08-23T16:02:02.799Z,30.41
2022-08-23T16:04:29.531Z,29.63
2022-08-23T16:07:05.067Z,29.86
2022-08-23T16:09:33.712Z,29.82
2022-08-23T16:12:00.727Z,29.56
2022-08-23T16:14:27.470Z,29.35
2022-08-23T16:16:54.260Z,30.00
2022-08-23T16:19:20.964Z,29.67
2022-08-23T16:21:48.433Z,29.41
2022-08-23T16:24:15.052Z,29.11
2022-08-23T16:26:45.385Z,29.37
2022-08-23T16:29:14.467Z,29.60
2022-08-23T16:31:41.718Z,29.96
2022-08-23T16:34:12.301Z,29.47
2022-08-23T16:36:42.152Z,29.11
2022-08-23T16:39:11.729Z,28.54
2022-08-23T16:41:38.483Z,26.61
2022-08-23T16:44:05.831Z,25.61
2022-08-23T16:46:32.669Z,25.33
2022-08-23T16:48:59.396Z,25.15
2022-08-23T16:51:26.549Z,24.95
2022-08-23T16:54:01.614Z,24.67
2022-08-23T16:56:34.184Z,24.61
2022-08-23T16:59:02.283Z,24.32
2022-08-23T17:01:29.792Z,24.02
2022-08-23T17:03:56.536Z,24.13
2022-08-23T17:06:23.132Z,23.96
2022-08-23T17:08:49.903Z,24.07
2022-08-23T17:11:19.519Z,23.57
2022-08-23T17:13:46.599Z,23.46
2022-08-23T17:16:14.265Z,23.29
2022-08-23T17:18:41.197Z,23.26
2022-08-23T17:21:09.164Z,23.23
2022-08-23T17:23:39.264Z,23.38
2022-08-23T17:26:09.309Z,23.16
2022-08-23T17:28:36.210Z,23.20
2022-08-23T17:31:03.067Z,23.14
2022-08-23T17:33:29.850Z,22.82
2022-08-23T17:35:56.717Z,22.86
2022-08-23T17:38:23.443Z,22.00
2022-08-23T17:40:50.212Z,21.76
2022-08-23T17:43:18.562Z,21.76
2022-08-23T17:45:48.087Z,21.58
2022-08-23T17:48:17.548Z,21.43
2022-08-23T17:50:45.068Z,21.09
2022-08-23T17:53:14.398Z,20.88
2022-08-23T17:55:43.068Z,20.54
2022-08-23T17:58:10.513Z,20.40
2022-08-23T18:00:39.641Z,20.56
2022-08-23T18:03:06.792Z,20.02
2022-08-23T18:05:35.256Z,20.05
2022-08-23T18:08:02.100Z,20.08
2022-08-23T18:10:30.117Z,19.98
2022-08-23T18:12:57.934Z,19.83
2022-08-23T18:15:25.005Z,19.78
2022-08-23T18:17:53.973Z,19.69
2022-08-23T18:20:28.932Z,19.61
2022-08-23T18:22:57.745Z,19.48
2022-08-23T18:25:25.760Z,19.43
2022-08-23T18:28:08.191Z,19.42
2022-08-23T18:30:49.979Z,19.49
2022-08-23T18:33:20.084Z,19.12
2022-08-23T18:35:52.251Z,19.12
2022-08-23T18:38:19.409Z,19.22
2022-08-23T18:40:48.215Z,19.18
2022-08-23T18:43:25.078Z,18.73
2022-08-23T18:45:54.965Z,18.85
2022-08-23T18:48:22.831Z,18.58
2022-08-23T18:50:50.123Z,18.76
2022-08-23T18:53:19.492Z,18.50
2022-08-23T18:55:46.723Z,18.57
2022-08-23T18:58:13.412Z,18.69
2022-08-23T19:00:41.704Z,18.70
2022-08-23T19:03:08.977Z,18.31
2022-08-23T19:05:42.301Z,18.16
2022-08-23T19:08:10.500Z,18.11
2022-08-23T19:10:37.648Z,17.97
2022-08-23T19:13:04.598Z,18.09
2022-08-23T19:15:34.014Z,18.24
2022-08-23T19:18:01.756Z,18.54
2022-08-23T19:20:29.127Z,18.08
2022-08-23T19:22:57.104Z,18.02
2022-08-23T19:25:24.479Z,17.96
2022-08-23T19:27:51.543Z,17.72
2022-08-23T19:30:18.554Z,17.79
2022-08-23T19:32:45.222Z,17.81
2022-08-23T19:35:13.635Z,17.93
2022-08-23T19:37:40.585Z,17.85
2022-08-23T19:40:08.015Z,17.91
2022-08-23T19:42:36.994Z,17.57
2022-08-23T19:45:08.128Z,17.70
2022-08-23T19:47:34.812Z,17.73
2022-08-23T19:50:02.999Z,17.67
2022-08-23T19:52:29.745Z,17.48
2022-08-23T19:55:05.220Z,17.36
2022-08-23T19:57:33.313Z,17.33
2022-08-23T20:00:04.798Z,17.15
2022-08-23T20:02:31.568Z,17.05
2022-08-23T20:04:58.367Z,17.23
2022-08-23T20:07:25.088Z,17.32
2022-08-23T20:09:51.685Z,17.33
2022-08-23T20:12:18.861Z,16.94
2022-08-23T20:14:45.818Z,17.00
2022-08-23T20:17:12.619Z,16.80
2022-08-23T20:19:41.030Z,16.77
2022-08-23T20:22:26.414Z,16.77
2022-08-23T20:24:53.751Z,16.62
2022-08-23T20:27:28.844Z,16.81
2022-08-23T20:30:02.108Z,16.57
2022-08-23T20:32:29.869Z,16.49
2022-08-23T20:34:57.718Z,16.19
2022-08-23T20:37:25.082Z,15.81
2022-08-23T20:39:52.413Z,15.87
2022-08-23T20:42:19.212Z,15.95
2022-08-23T20:44:45.923Z,16.01
2022-08-23T20:47:12.973Z,16.17
2022-08-23T20:49:39.920Z,16.01
2022-08-23T20:52:06.988Z,15.76
2022-08-23T20:54:33.704Z,15.63
2022-08-23T20:57:00.569Z,15.62
2022-08-23T20:59:27.401Z,15.65
2022-08-23T21:01:54.424Z,15.59
2022-08-23T21:04:21.499Z,15.54
2022-08-23T21:06:58.185Z,15.72
2022-08-23T21:09:29.209Z,15.44
2022-08-23T21:11:56.390Z,15.55
2022-08-23T21:14:23.315Z,15.69
2022-08-23T21:16:50.057Z,15.80
2022-08-23T21:19:17.295Z,15.61
2022-08-23T21:21:44.341Z,15.66
2022-08-23T21:24:11.844Z,15.46
2022-08-23T21:26:38.823Z,15.65
2022-08-23T21:29:07.630Z,15.59
2022-08-23T21:31:34.778Z,15.69
2022-08-23T21:34:01.828Z,16.08
2022-08-23T21:36:28.968Z,16.02
2022-08-23T21:38:55.661Z,15.95
2022-08-23T21:41:30.445Z,16.01
2022-08-23T21:43:57.271Z,16.05
2022-08-23T21:46:24.314Z,15.79
2022-08-23T21:48:51.121Z,15.69
2022-08-23T21:51:17.947Z,15.27
2022-08-23T21:53:44.540Z,15.15
2022-08-23T21:56:11.148Z,15.07
2022-08-23T21:58:37.891Z,15.25
2022-08-23T22:01:04.652Z,15.28
2022-08-23T22:03:31.259Z,15.45
2022-08-23T22:05:58.059Z,15.31
2022-08-23T22:08:25.307Z,15.21
2022-08-23T22:10:57.619Z,14.95
2022-08-23T22:13:28.567Z,15.16
2022-08-23T22:15:55.773Z,15.11
2022-08-23T22:18:22.536Z,15.14
2022-08-23T22:20:49.222Z,15.35
2022-08-23T22:23:15.936Z,15.23
2022-08-23T22:25:42.701Z,15.03
2022-08-23T22:28:09.455Z,15.30
2022-08-23T22:30:36.193Z,15.07
2022-08-23T22:33:03.053Z,15.15
2022-08-23T22:35:34.723Z,15.12
2022-08-23T22:38:13.708Z,15.00
2022-08-23T22:40:51.555Z,14.97
2022-08-23T22:43:19.696Z,14.91
2022-08-23T22:45:57.342Z,14.83
2022-08-23T22:48:25.488Z,14.78
2022-08-23T22:51:23.111Z,14.90
2022-08-23T22:53:56.061Z,14.99
2022-08-23T22:56:31.466Z,14.52
2022-08-23T22:58:58.896Z,14.34
2022-08-23T23:01:27.605Z,14.60
2022-08-23T23:03:57.183Z,14.60
2022-08-23T23:06:24.374Z,14.82
2022-08-23T23:08:52.036Z,14.72
2022-08-23T23:11:20.269Z,14.49
2022-08-23T23:13:47.356Z,14.65
2022-08-23T23:16:18.716Z,14.76
2022-08-23T23:19:06.140Z,14.55
2022-08-23T23:21:55.867Z,14.55
2022-08-23T23:24:34.832Z,14.18
2022-08-23T23:27:02.469Z,14.18
2022-08-23T23:29:30.204Z,14.29
2022-08-23T23:31:56.936Z,14.35
2022-08-23T23:34:25.824Z,14.12
2022-08-23T23:36:57.274Z,14.06
2022-08-23T23:39:24.939Z,14.04
2022-08-23T23:41:51.805Z,14.18
2022-08-23T23:44:22.527Z,14.06
2022-08-23T23:46:57.982Z,13.75
2022-08-23T23:49:32.303Z,13.58
2022-08-23T23:52:01.241Z,13.69
2022-08-23T23:54:28.033Z,14.34
2022-08-23T23:56:55.461Z,13.87
2022-08-23T23:59:22.123Z,13.77
